Brainerd Lakes Regional Airport

Date: 2024-06-11 10:53:00Z

Type: METAR

Weather: Light Rain

Winds: 150° at 10 kts

Visibility: 6

Ceiling (AGL FT): Clouds OVERCAST at 4900, BROKEN at 11000, SCATTERED at 8000, BROKEN at 15000

RAW METAR: KBRD 111053Z AUTO 15010KT 6SM -RA BR OVC049 13/11 A2980 RMK AO2 SLP092 P0012 T01280106

project-image